Nearby METAR Reports - 80 Mile Radius
Meteorological Terminal Air Report (METAR)


KBWI - Balto/Wash Intl Airport, Maryland
Distance from station: S 5mi, 8km
Updated: Sat, 23-Sep-2017 1:54pm EDT
Partly Cloudy
Partly Cloudy
 Wind from varies
Wind: varies 6 mph , 9 km/h
Temperature: 84°F , 29°C
Heat Index: 85°F , 29°C
Dew Point: 63°F , 17°C
Humidity: 48%
Barometer: 30.06 inHg , 1017.9 hPa
Clouds: Partly Cloudy
Visibility: 10 miles , 16 km
Cloud details: Few Clouds 5000 ft
Partly Cloudy 25000 ft
2017/09/23 17:54 KBWI 231754Z VRB05KT 10SM FEW050 SCT250 29/17 A3006 RMK AO2 SLP176 T02940172 10300 20172 58012
KDMH - Baltimore/Dwntwn, Maryland
Distance from station: NE 5mi, 9km
Updated: Sat, 23-Sep-2017 1:54pm EDT

 
Temperature: 84°F , 29°C
Heat Index: 85°F , 29°C
Dew Point: 63°F , 17°C
Humidity: 48%
Barometer: 30.06 inHg , 1017.9 hPa
2017/09/23 17:54 KDMH 231754Z AUTO 29/17 A3006 RMK AO1 SLP177 T02940167 10300 20217 58014
KFME - Fort Meade/Tipton AAF, Maryland
Distance from station: SSW 11mi, 18km
Updated: Sat, 23-Sep-2017 2:06pm EDT

 Wind from NNW
Wind: NNW 6 mph , 9 km/h
Temperature: 82°F , 28°C
Heat Index: 83°F , 28°C
Dew Point: 63°F , 17°C
Humidity: 51%
Barometer: 30.08 inHg , 1018.6 hPa
Visibility: 10 miles , 16 km
2017/09/23 18:06 KFME 231806Z AUTO 34005KT 10SM 28/17 A3008 RMK AO1
 
KMTN - Balto/Martin State Airport, Maryland
Distance from station: ENE 16mi, 26km
Updated: Sat, 23-Sep-2017 1:45pm EDT
Clear
Clear
 Wind from NNW
Wind: NNW 5 mph , 7 km/h
Temperature: 86°F , 30°C
Heat Index: 88°F , 31°C
Dew Point: 66°F , 19°C
Humidity: 52%
Barometer: 30.07 inHg , 1018.3 hPa
Clouds: Clear
Visibility: 10 miles , 16 km
2017/09/23 17:45 KMTN 231745Z 33004KT 10SM SKC 30/19 A3007
KCGS - College Park Airport, Maryland
Distance from station: SSW 21mi, 34km
Updated: Sat, 23-Sep-2017 2:05pm EDT
Clear
Clear
 Wind from NNW
Wind: NNW 8 mph , 13 km/h, Gust: 16 mph , 26 km/h
Temperature: 82°F , 28°C
Heat Index: 83°F , 28°C
Dew Point: 63°F , 17°C
Humidity: 51%
Barometer: 30.07 inHg , 1018.3 hPa
Clouds: Clear
Visibility: 10 miles , 16 km
2017/09/23 18:05 KCGS 231805Z AUTO 34007G14KT 310V010 10SM CLR 28/17 A3007 RMK AO1 T02840170
KNAK - Annapolis/Naval Academy, Maryland
Distance from station: SE 21mi, 34km
Updated: Sat, 23-Sep-2017 1:54pm EDT
Clear
Clear
 Wind from N
Wind: N 5 mph , 7 km/h
Temperature: 84°F , 29°C
Heat Index: 85°F , 29°C
Dew Point: 64°F , 18°C
Humidity: 51%
Barometer: 30.06 inHg , 1017.9 hPa
Clouds: Clear
Visibility: 10 miles , 16 km
2017/09/23 17:54 KNAK 231754Z AUTO 01004KT 10SM CLR 29/18 A3006 RMK AO2 SLP179 T02890178 10289 20217 58010
 
KGAI - Gaithersburg/Montgomery Co Airpark, Maryland
Distance from station: W 26mi, 41km
Updated: Sat, 23-Sep-2017 1:56pm EDT
Clear
Clear
 Wind from varies
Wind: varies 3 mph , 6 km/h
Temperature: 84°F , 29°C
Heat Index: 85°F , 29°C
Dew Point: 64°F , 18°C
Humidity: 51%
Barometer: 30.10 inHg , 1019.3 hPa
Clouds: Clear
Visibility: 10 miles , 16 km
2017/09/23 17:56 KGAI 231756Z AUTO VRB03KT 10SM CLR 29/18 A3010 RMK AO2 SLP213 T02890183 10289 20156 58012
KW29 - Stevensville/Bay Bridge Airport, Maryland
Distance from station: SE 26mi, 42km
Updated: Sat, 23-Sep-2017 2:00pm EDT
Clear
Clear
 Wind from NNW
Wind: NNW 6 mph , 9 km/h
Temperature: 81°F , 27°C
Heat Index: 83°F , 28°C
Dew Point: 64°F , 18°C
Humidity: 58%
Barometer: 30.06 inHg , 1017.9 hPa
Clouds: Clear
Visibility: 10 miles , 16 km
2017/09/23 18:00 KW29 231800Z AUTO 34005KT 10SM CLR 27/18 A3006 RMK AO2
KDMW - Carroll Co Regional Airport, Maryland
Distance from station: NNW 30mi, 48km
Updated: Sat, 23-Sep-2017 2:05pm EDT
Clear
Clear
 Wind from N
Wind: N 10 mph , 17 km/h, Gust: 17 mph , 28 km/h
Temperature: 84°F , 29°C
Heat Index: 83°F , 28°C
Dew Point: 57°F , 14°C
Humidity: 40%
Barometer: 30.10 inHg , 1019.3 hPa
Clouds: Clear
Visibility: 10 miles , 16 km
2017/09/23 18:05 KDMW 231805Z AUTO 36009G15KT 10SM CLR 29/14 A3010 RMK AO2
 
KADW - Andrews AFB, Maryland
Distance from station: SSW 30mi, 49km
Updated: Sat, 23-Sep-2017 1:58pm EDT
Clear
Clear
 Wind from N
Wind: N 9 mph , 15 km/h
Temperature: 84°F , 29°C
Heat Index: 84°F , 29°C
Dew Point: 61°F , 16°C
Humidity: 45%
Barometer: 30.06 inHg , 1017.9 hPa
Clouds: Clear
Visibility: 10 miles , 16 km
2017/09/23 17:58 KADW 231758Z AUTO 36008KT 10SM CLR 29/16 A3006 RMK AO2 SLP184 60000 T02850161 10286 20182 57012
KAPG - Aberdeen/Phillip AAF, Maryland
Distance from station: ENE 32mi, 52km
Updated: Sat, 23-Sep-2017 1:58pm EDT
Clear
Clear
 Wind from NNW
Wind: NNW 9 mph , 15 km/h
Temperature: 84°F , 29°C
Heat Index: 85°F , 29°C
Dew Point: 63°F , 17°C
Humidity: 48%
Barometer: 30.06 inHg , 1017.9 hPa
Clouds: Clear
Visibility: 10 miles , 16 km
2017/09/23 17:58 KAPG 231758Z AUTO 34008KT 10SM CLR 29/17 A3006 RMK AO2 SLP182 T02850171 10285 20182 57012 $
KDCA - Washington/Natl Airport, Washington D.C.
Distance from station: SW 32mi, 52km
Updated: Sat, 23-Sep-2017 1:52pm EDT
Few Clouds
Few Clouds
 Wind from N
Wind: N 13 mph , 20 km/h, Gust: 22 mph , 35 km/h
Temperature: 84°F , 29°C
Heat Index: 85°F , 29°C
Dew Point: 63°F , 17°C
Humidity: 48%
Barometer: 30.07 inHg , 1018.3 hPa
Clouds: Few Clouds
Visibility: 10 miles , 16 km
Cloud details: Few Clouds 4000 ft
Few Clouds 25000 ft
2017/09/23 17:52 KDCA 231752Z 35011G19KT 10SM FEW040 FEW250 29/17 A3007 RMK AO2 SLP182 T02940172 10300 20200 58012 $
 
KFDK - Frederick Municipal Airport, Maryland
Distance from station: WNW 38mi, 61km
Updated: Sat, 23-Sep-2017 1:47pm EDT
Clear
Clear
 Wind from varies
Wind: varies 5 mph , 7 km/h
Temperature: 88°F , 31°C
Dew Point: 57°F , 14°C
Humidity: 35%
Barometer: 30.11 inHg , 1019.6 hPa
Clouds: Clear
Visibility: 10 miles , 16 km
2017/09/23 17:47 KFDK 231747Z VRB04KT 10SM SKC 31/14 A3011
KDAA - Fort Belvoir/Davison AAF, Virginia
Distance from station: SW 44mi, 71km
Updated: Sat, 23-Sep-2017 1:56pm EDT
Clear
Clear
 Wind from NNW
Wind: NNW 3 mph , 6 km/h
Temperature: 86°F , 30°C
Heat Index: 86°F , 30°C
Dew Point: 61°F , 16°C
Humidity: 43%
Barometer: 30.06 inHg , 1017.9 hPa
Clouds: Clear
Visibility: 10 miles , 16 km
2017/09/23 17:56 KDAA 231756Z AUTO 34003KT 10SM CLR 30/16 A3006 RMK AO2 SLP182 T02960160 10296 20174 58013 $
KESN - Easton/Newnam Field Airport, Maryland
Distance from station: SE 45mi, 73km
Updated: Sat, 23-Sep-2017 1:45pm EDT
Partly Cloudy
Partly Cloudy
 Wind from NW
Wind: NW 10 mph , 17 km/h
Temperature: 86°F , 30°C
Heat Index: 88°F , 31°C
Dew Point: 64°F , 18°C
Humidity: 49%
Barometer: 30.08 inHg , 1018.6 hPa
Clouds: Partly Cloudy
Visibility: 10 miles , 16 km
Cloud details: Partly Cloudy 12000 ft
2017/09/23 17:45 KESN 231745Z 32009KT 10SM SCT120 30/18 A3008
 
KIAD - Wash DC/Dulles Intl, Virginia
Distance from station: WSW 45mi, 73km
Updated: Sat, 23-Sep-2017 1:52pm EDT
Few Clouds
Few Clouds
 Wind from NNE
Wind: NNE 10 mph , 17 km/h, Gust: 17 mph , 28 km/h
Temperature: 82°F , 28°C
Heat Index: 82°F , 28°C
Dew Point: 61°F , 16°C
Humidity: 48%
Barometer: 30.08 inHg , 1018.6 hPa
Clouds: Few Clouds
Visibility: 10 miles , 16 km
Cloud details: Few Clouds 5000 ft
Few Clouds 25000 ft
2017/09/23 17:52 KIAD 231752Z 02009G15KT 10SM FEW050 FEW250 28/16 A3008 RMK AO2 SLP185 T02830161 10283 20172 58010
KJYO - Leesburg/Godfrey Field, Virginia
Distance from station: WSW 48mi, 77km
Updated: Sat, 23-Sep-2017 1:55pm EDT
Clear
Clear
 Wind from NNE
Wind: NNE 6 mph , 9 km/h
Temperature: 82°F , 28°C
Heat Index: 83°F , 28°C
Dew Point: 63°F , 17°C
Humidity: 51%
Barometer: 30.10 inHg , 1019.3 hPa
Clouds: Clear
Visibility: 10 miles , 16 km
2017/09/23 17:55 KJYO 231755Z AUTO 02005KT 10SM CLR 28/17 A3010 RMK AO2
KTHV - York Airport, Pennsylvania
Distance from station: NNW 48mi, 77km
Updated: Sat, 23-Sep-2017 1:53pm EDT
Clear
Clear
 Wind from N
Wind: N 6 mph , 9 km/h
Temperature: 84°F , 29°C
Heat Index: 83°F , 28°C
Dew Point: 57°F , 14°C
Humidity: 40%
Barometer: 30.09 inHg , 1019 hPa
Clouds: Clear
Visibility: 10 miles , 16 km
2017/09/23 17:53 KTHV 231753Z AUTO 01005KT 10SM CLR 29/14 A3009 RMK AO2 SLP190 T02890144 10289 20133 58012
 
KRSP - Naval Support Fac Thurmont, Maryland, USA
Distance from station: NW 50mi, 81km
Updated: Sat, 23-Sep-2017 1:54pm EDT
Clear
Clear
 Wind from varies
Wind: varies 6 mph , 9 km/h
Temperature: 81°F , 27°C
Heat Index: 82°F , 28°C
Dew Point: 61°F , 16°C
Humidity: 51%
Barometer: 30.15 inHg , 1021 hPa
Clouds: Clear
Visibility: 10 miles , 16 km
2017/09/23 17:54 KRSP 231754Z AUTO VRB05KT 10SM CLR 27/16 A3015 RMK AO2 SLP298 T02670161 10272 20172 58007 $
KRYT - Fountain Dale Airport, Pennsylvania
Distance from station: NW 52mi, 84km
Updated: Sat, 23-Sep-2017 12:53pm EDT
NOT Current
Clear
Clear
 Wind from calm
Wind: Calm
Temperature: 84°F , 29°C
Heat Index: 84°F , 29°C
Dew Point: 61°F , 16°C
Humidity: 45%
Barometer: 30.10 inHg , 1019.3 hPa
Clouds: Clear
Visibility: 10 miles , 16 km
2017/09/23 16:53 KRYT 231653Z AUTO 00000KT 10SM CLR 29/16 A3010 RMK AO2 SLP181 T02890161 TSNO $
KHEF - Manassas Municipal Airport, Virginia
Distance from station: SW 57mi, 91km
Updated: Sat, 23-Sep-2017 1:56pm EDT
Clear
Clear
 Wind from NNE
Wind: NNE 13 mph , 20 km/h
Temperature: 84°F , 29°C
Heat Index: 85°F , 29°C
Dew Point: 63°F , 17°C
Humidity: 48%
Barometer: 30.08 inHg , 1018.6 hPa
Clouds: Clear
Visibility: 10 miles , 16 km
2017/09/23 17:56 KHEF 231756Z AUTO 02011KT 10SM CLR 29/17 A3008 RMK AO2 SLP194 6//// T02940167 10294 20144 58012 PNO $
 
KNYG - Quantico Marine Corps Air Fac, Virginia
Distance from station: SSW 60mi, 96km
Updated: Sat, 23-Sep-2017 1:56pm EDT
Few Clouds
Few Clouds
 Wind from E
Wind: E 8 mph , 13 km/h
Temperature: 82°F , 28°C
Heat Index: 84°F , 29°C
Dew Point: 64°F , 18°C
Humidity: 55%
Barometer: 30.07 inHg , 1018.3 hPa
Clouds: Few Clouds
Visibility: 10 miles , 16 km
Cloud details: Few Clouds 25000 ft
2017/09/23 17:56 KNYG 231756Z 08007KT 10SM FEW250 28/18 A3007 RMK AO2 SLP185 T02830183 10283 20189 58010 $
KCGE - Cambridge-Dorchester Reg Airport, Maryland
Distance from station: SE 60mi, 97km
Updated: Sat, 23-Sep-2017 2:05pm EDT
Clear
Clear
 Wind from NW
Wind: NW 8 mph , 13 km/h
Temperature: 82°F , 28°C
Heat Index: 84°F , 29°C
Dew Point: 66°F , 19°C
Humidity: 58%
Barometer: 30.04 inHg , 1017.3 hPa
Clouds: Clear
Visibility: 10 miles , 16 km
2017/09/23 18:05 KCGE 231805Z AUTO 32007KT 10SM CLR 28/19 A3004 RMK A01
K2W6 - St Marys Co Reg Airport, Maryland
Distance from station: SSE 64mi, 103km
Updated: Sat, 23-Sep-2017 1:57pm EDT
Clear
Clear
 Wind from N
Wind: N 7 mph , 11 km/h
Temperature: 81°F , 27°C
Heat Index: 82°F , 28°C
Dew Point: 63°F , 17°C
Humidity: 54%
Barometer: 30.08 inHg , 1018.6 hPa
Clouds: Clear
Visibility: 10 miles , 16 km
2017/09/23 17:57 K2W6 231757Z AUTO 35006KT 10SM CLR 27/17 A3008 RMK AO1
 
KHGR - Hagerstown Reg Airport, Maryland
Distance from station: WNW 64mi, 103km
Updated: Sat, 23-Sep-2017 1:53pm EDT
Clear
Clear
 Wind from NW
Wind: NW 7 mph , 11 km/h
Temperature: 86°F , 30°C
Dew Point: 55°F , 13°C
Humidity: 35%
Barometer: 30.10 inHg , 1019.3 hPa
Clouds: Clear
Visibility: 10 miles , 16 km
2017/09/23 17:53 KHGR 231753Z 32006KT 10SM CLR 30/13 A3010 RMK AO2 SLP198 T03000128 10300 20172 58013 $
KLNS - Lancaster Airport, Pennsylvania
Distance from station: NNE 64mi, 104km
Updated: Sat, 23-Sep-2017 1:53pm EDT
Clear
Clear
 Wind from N
Wind: N 7 mph , 11 km/h
Temperature: 84°F , 29°C
Heat Index: 83°F , 28°C
Dew Point: 57°F , 14°C
Humidity: 40%
Barometer: 30.08 inHg , 1018.6 hPa
Clouds: Clear
Visibility: 10 miles , 16 km
2017/09/23 17:53 KLNS 231753Z 35006KT 10SM CLR 29/14 A3008 RMK AO2 SLP182 T02940139 10294 20161 58012
KILG - New Castle Airport, Wilmington, Delaware
Distance from station: ENE 66mi, 106km
Updated: Sat, 23-Sep-2017 1:51pm EDT
Clear
Clear
 Wind from NNW
Wind: NNW 12 mph , 19 km/h, Gust: 17 mph , 28 km/h
Temperature: 86°F , 30°C
Heat Index: 86°F , 30°C
Dew Point: 61°F , 16°C
Humidity: 43%
Barometer: 30.05 inHg , 1017.6 hPa
Clouds: Clear
Visibility: 10 miles , 16 km
2017/09/23 17:51 KILG 231751Z 34010G15KT 10SM CLR 30/16 A3005 RMK AO2 SLP176 T03000161 10306 20194 58009
 
KDOV - Dover Air Force Base, Delaware
Distance from station: E 66mi, 107km
Updated: Sat, 23-Sep-2017 1:58pm EDT
Few Clouds
Few Clouds
 Wind from NNW
Wind: NNW 13 mph , 20 km/h, Gust: 20 mph , 31 km/h
Temperature: 84°F , 29°C
Heat Index: 84°F , 29°C
Dew Point: 61°F , 16°C
Humidity: 45%
Barometer: 30.03 inHg , 1016.9 hPa
Clouds: Few Clouds
Visibility: 10 miles , 16 km
Cloud details: Few Clouds 7000 ft
Few Clouds 20000 ft
2017/09/23 17:58 KDOV 231758Z 34011G17KT 10SM FEW070 FEW200 29/16 A3003 RMK AO2A SLP172 10287 20199 57007 $
KMDT - Harrisburg Intl Airport, Middletown, Pennsylvania
Distance from station: N 67mi, 107km
Updated: Sat, 23-Sep-2017 1:56pm EDT
Few Clouds
Few Clouds
 Wind from W
Wind: W 12 mph , 19 km/h
Temperature: 84°F , 29°C
Heat Index: 84°F , 29°C
Dew Point: 59°F , 15°C
Humidity: 43%
Barometer: 30.08 inHg , 1018.6 hPa
Clouds: Few Clouds
Visibility: 10 miles , 16 km
Cloud details: Few Clouds 25000 ft
2017/09/23 17:56 KMDT 231756Z 27010KT 10SM FEW250 29/15 A3008 RMK AO2 SLP183 T02890150 10294 20183 58011
KMQS - Chester Co Carlson Airport, Coatesville, Pennsylvania
Distance from station: NE 68mi, 109km
Updated: Sat, 23-Sep-2017 1:55pm EDT
Clear
Clear
 Wind from NNW
Wind: NNW 12 mph , 19 km/h
Temperature: 82°F , 28°C
Heat Index: 82°F , 28°C
Dew Point: 61°F , 16°C
Humidity: 48%
Barometer: 30.10 inHg , 1019.3 hPa
Clouds: Clear
Visibility: 10 miles , 16 km
2017/09/23 17:55 KMQS 231755Z AUTO 34010KT 10SM CLR 28/16 A3010 RMK AO2
 
KCXY - Capital City Airport, Harrisburg, Pennsylvania
Distance from station: N 68mi, 110km
Updated: Sat, 23-Sep-2017 1:56pm EDT
Clear
Clear
 Wind from NNW
Wind: NNW 9 mph , 15 km/h
Temperature: 84°F , 29°C
Dew Point: 52°F , 11°C
Humidity: 33%
Barometer: 30.09 inHg , 1019 hPa
Clouds: Clear
Visibility: 10 miles , 16 km
2017/09/23 17:56 KCXY 231756Z 33008KT 10SM CLR 29/11 A3009 RMK AO2 SLP188 T02940106 10294 20178 58011
KNHK - Patuxent River NAS, Maryland
Distance from station: SE 69mi, 111km
Updated: Sat, 23-Sep-2017 1:52pm EDT
Few Clouds
Few Clouds
 Wind from N
Wind: N 9 mph , 15 km/h
Temperature: 82°F , 28°C
Heat Index: 84°F , 29°C
Dew Point: 64°F , 18°C
Humidity: 55%
Barometer: 30.06 inHg , 1017.9 hPa
Clouds: Few Clouds
Visibility: 10 miles , 16 km
Cloud details: Few Clouds 2500 ft
Few Clouds 28000 ft
2017/09/23 17:52 KNHK 231752Z 01008KT 10SM FEW025 FEW280 28/18 A3006 RMK AO2 SLP179 T02830178 10289 20211 58004
KMRB - Eastern WV Reg Airport/Shepherd Field, Martinsburg, West Virginia
Distance from station: W 70mi, 112km
Updated: Sat, 23-Sep-2017 1:53pm EDT
Clear
Clear
 Wind from varies
Wind: varies 6 mph , 9 km/h
Temperature: 84°F , 29°C
Dew Point: 55°F , 13°C
Humidity: 37%
Barometer: 30.10 inHg , 1019.3 hPa
Clouds: Clear
Visibility: 10 miles , 16 km
2017/09/23 17:53 KMRB 231753Z VRB05KT 10SM CLR 29/13 A3010 RMK AO2 SLP187 T02890128 10289 20122 58014
 
KHWY - Warrenton-Fauquier Airport, Warrenton, Virginia
Distance from station: SW 71mi, 114km
Updated: Sat, 23-Sep-2017 1:55pm EDT
Clear
Clear
 Wind from NNE
Wind: NNE 9 mph , 15 km/h
Temperature: 84°F , 29°C
Dew Point: 55°F , 13°C
Humidity: 37%
Barometer: 30.08 inHg , 1018.6 hPa
Clouds: Clear
Visibility: 10 miles , 16 km
2017/09/23 17:55 KHWY 231755Z AUTO 02008KT 10SM CLR 29/13 A3008 RMK AO2 T02940131 10300 20143
KRMN - Stafford Regional Airport, Virginia
Distance from station: SW 71mi, 114km
Updated: Sat, 23-Sep-2017 1:55pm EDT
Clear
Clear
 Wind from N
Wind: N 6 mph , 9 km/h, Gust: 9 mph , 15 km/h
Temperature: 84°F , 29°C
Heat Index: 84°F , 29°C
Dew Point: 61°F , 16°C
Humidity: 45%
Barometer: 30.11 inHg , 1019.6 hPa
Clouds: Clear
Visibility: 10 miles , 16 km
2017/09/23 17:55 KRMN 231755Z AUTO 01005G08KT 10SM CLR 29/16 A3011 RMK AO2 T02860157 10287 20155
KNUI - Webster Naval, St Inigoes, Maryland
Distance from station: S 76mi, 123km
Updated: Sat, 23-Sep-2017 1:53pm EDT
Clear
Clear
 Wind from varies
Wind: varies 5 mph , 7 km/h
Temperature: 84°F , 29°C
Heat Index: 86°F , 30°C
Dew Point: 66°F , 19°C
Humidity: 55%
Barometer: 30.05 inHg , 1017.6 hPa
Clouds: Clear
Visibility: 10 miles , 16 km
2017/09/23 17:53 KNUI 231753Z AUTO VRB04KT 10SM CLR 29/19 A3005 RMK AO2 SLP176 T02890189 10294 20189 58004
 
KEZF - Fredericksburg/Shan, Virginia
Distance from station: SSW 78mi, 126km
Updated: Sat, 23-Sep-2017 1:55pm EDT
Clear
Clear
 Wind from NNW
Wind: NNW 7 mph , 11 km/h
Temperature: 84°F , 29°C
Heat Index: 85°F , 29°C
Dew Point: 63°F , 17°C
Humidity: 48%
Barometer: 30.06 inHg , 1017.9 hPa
Clouds: Clear
Visibility: 10 miles , 16 km
2017/09/23 17:55 KEZF 231755Z AUTO 34006KT 10SM CLR 29/17 A3006 RMK AO2 T02870174 10289 20168
KOKV - Winchester Regional Airport, Virginia
Distance from station: W 78mi, 126km
Updated: Sat, 23-Sep-2017 1:55pm EDT
Clear
Clear
 Wind from N
Wind: N 3 mph , 6 km/h
Temperature: 81°F , 27°C
Heat Index: 81°F , 27°C
Dew Point: 55°F , 13°C
Humidity: 42%
Barometer: 30.12 inHg , 1020 hPa
Clouds: Clear
Visibility: 10 miles , 16 km
2017/09/23 17:55 KOKV 231755Z AUTO 35003KT 10SM CLR 27/13 A3012 RMK AO2
KCJR - Culpeper Regional Airport, Virginia
Distance from station: SW 79mi, 128km
Updated: Sat, 23-Sep-2017 1:55pm EDT
Clear
Clear
 Wind from N
Wind: N 7 mph , 11 km/h
Temperature: 84°F , 29°C
Heat Index: 84°F , 29°C
Dew Point: 61°F , 16°C
Humidity: 45%
Barometer: 30.09 inHg , 1019 hPa
Clouds: Clear
Visibility: 10 miles , 16 km
2017/09/23 17:55 KCJR 231755Z AUTO 36006KT 10SM CLR 29/16 A3009 RMK AO2 T02910162 10293 20155